createdAt,value
2023-03-23T15:58:33.684Z,99152.41
2023-03-23T16:01:06.401Z,99154.28
2023-03-23T16:03:42.400Z,99156.00
2023-03-23T16:06:13.144Z,99161.13
2023-03-23T16:08:54.012Z,99151.19
2023-03-23T16:11:26.060Z,99153.88
2023-03-23T16:13:54.141Z,99159.13
2023-03-23T16:16:27.079Z,99164.56
2023-03-23T16:18:55.583Z,99155.56
2023-03-23T16:21:23.709Z,99155.84
2023-03-23T16:23:51.597Z,99152.84
2023-03-23T16:26:19.746Z,99143.00
2023-03-23T16:28:49.592Z,99150.84
2023-03-23T16:31:18.569Z,99146.84
2023-03-23T16:33:46.540Z,99147.09
2023-03-23T16:36:15.323Z,99152.31
2023-03-23T16:38:49.204Z,99160.16
2023-03-23T16:41:18.117Z,99161.22
2023-03-23T16:43:46.491Z,99161.41
2023-03-23T16:46:15.933Z,99160.66
2023-03-23T16:48:44.006Z,99163.31
2023-03-23T16:51:12.049Z,99156.69
2023-03-23T16:53:39.998Z,99161.88
2023-03-23T16:56:08.023Z,99160.31
2023-03-23T16:58:36.125Z,99162.94
2023-03-23T17:01:05.709Z,99160.50
2023-03-23T17:03:35.658Z,99163.13
2023-03-23T17:06:04.554Z,99167.44
2023-03-23T17:08:32.982Z,99163.25
2023-03-23T17:11:01.086Z,99169.25
2023-03-23T17:13:29.245Z,99168.41
2023-03-23T17:15:57.970Z,99173.47
2023-03-23T17:18:28.690Z,99167.59
2023-03-23T17:20:58.061Z,99168.47
2023-03-23T17:23:26.148Z,99166.78
2023-03-23T17:25:54.370Z,99169.31
2023-03-23T17:28:22.754Z,99167.63
2023-03-23T17:30:52.858Z,99166.75
2023-03-23T17:33:21.035Z,99162.56
2023-03-23T17:35:51.620Z,99175.16
2023-03-23T17:38:21.309Z,99170.09
2023-03-23T17:40:49.179Z,99170.94
2023-03-23T17:43:17.089Z,99176.00
2023-03-23T17:45:47.022Z,99176.88
2023-03-23T17:48:15.264Z,99181.94
2023-03-23T17:50:43.215Z,99187.00
2023-03-23T17:53:11.332Z,99187.91
2023-03-23T17:55:43.047Z,99176.97
2023-03-23T17:58:12.158Z,99188.78
2023-03-23T18:00:40.322Z,99187.13
2023-03-23T18:03:08.362Z,99192.19
2023-03-23T18:05:39.075Z,99196.47
2023-03-23T18:08:07.822Z,99196.50
2023-03-23T18:10:38.853Z,99200.72
2023-03-23T18:13:09.572Z,99199.94
2023-03-23T18:15:38.195Z,99201.63
2023-03-23T18:18:06.889Z,99212.53
2023-03-23T18:20:34.995Z,99210.03
2023-03-23T18:23:03.646Z,99212.56
2023-03-23T18:25:31.732Z,99216.84
2023-03-23T18:28:04.850Z,99217.69
2023-03-23T18:30:36.226Z,99212.63
2023-03-23T18:33:04.340Z,99218.53
2023-03-23T18:35:32.403Z,99215.16
2023-03-23T18:38:00.659Z,99216.84
2023-03-23T18:40:28.765Z,99215.22
2023-03-23T18:43:00.576Z,99221.94
2023-03-23T18:45:28.910Z,99236.25
2023-03-23T18:47:58.268Z,99216.06
2023-03-23T18:50:26.361Z,99237.88
2023-03-23T18:52:54.593Z,99232.00
2023-03-23T18:55:23.877Z,99246.28
2023-03-23T18:57:51.980Z,99256.44
2023-03-23T19:00:21.643Z,99254.75
2023-03-23T19:02:51.958Z,99257.28
2023-03-23T19:05:22.282Z,99262.38
2023-03-23T19:07:53.057Z,99264.88
2023-03-23T19:10:21.893Z,99262.38
2023-03-23T19:12:51.529Z,99249.75
2023-03-23T19:15:19.663Z,99264.88
2023-03-23T19:17:48.053Z,99252.28
2023-03-23T19:20:23.621Z,99247.22
2023-03-23T19:23:05.370Z,99237.97
2023-03-23T19:25:33.357Z,99241.34
2023-03-23T19:30:33.311Z,99240.50
2023-03-23T19:33:01.801Z,99245.53
2023-03-23T19:35:30.158Z,99243.03
2023-03-23T19:37:58.040Z,99245.56
2023-03-23T19:40:39.093Z,99248.91
2023-03-23T19:43:09.889Z,99256.47
2023-03-23T19:45:38.188Z,99254.00
2023-03-23T19:48:06.388Z,99241.41
2023-03-23T19:50:36.719Z,99251.50
2023-03-23T19:53:04.933Z,99254.00
2023-03-23T19:55:34.274Z,99252.31
2023-03-23T19:58:02.400Z,99254.00
2023-03-23T20:00:30.836Z,99256.53
2023-03-23T20:02:58.986Z,99253.16
2023-03-23T20:05:27.342Z,99256.53
2023-03-23T20:07:55.682Z,99257.34
2023-03-23T20:10:23.982Z,99258.22
2023-03-23T20:12:53.358Z,99257.34
2023-03-23T20:15:21.389Z,99256.53
2023-03-23T20:20:17.442Z,99250.59
2023-03-23T20:22:45.622Z,99248.94
2023-03-23T20:25:13.989Z,99261.53
2023-03-23T20:27:42.227Z,99252.25
2023-03-23T20:30:12.300Z,99260.66
2023-03-23T20:32:40.810Z,99259.00
2023-03-23T20:35:13.087Z,99261.53
2023-03-23T20:37:41.537Z,99269.06
2023-03-23T20:40:12.137Z,99261.47
2023-03-23T20:42:43.605Z,99259.81
2023-03-23T20:45:14.171Z,99279.13
2023-03-23T20:47:42.245Z,99280.81
2023-03-23T20:50:12.387Z,99279.94
2023-03-23T20:52:41.647Z,99290.03
2023-03-23T20:55:10.659Z,99277.47
2023-03-23T20:57:40.274Z,99290.06
2023-03-23T21:00:10.128Z,99296.75
2023-03-23T21:02:39.494Z,99299.28
2023-03-23T21:05:07.688Z,99292.53
2023-03-23T21:07:36.118Z,99286.66
2023-03-23T21:10:04.903Z,99278.28
2023-03-23T21:12:32.911Z,99277.44
2023-03-23T21:15:01.050Z,99275.78
2023-03-23T21:17:29.197Z,99281.66
2023-03-23T21:19:58.558Z,99275.78
2023-03-23T21:22:26.514Z,99272.44
2023-03-23T21:24:54.505Z,99282.53
2023-03-23T21:27:22.464Z,99272.47
2023-03-23T21:29:50.340Z,99242.19
2023-03-23T21:32:18.320Z,99268.25
2023-03-23T21:34:47.467Z,99271.59
2023-03-23T21:37:17.115Z,99274.13
2023-03-23T21:39:45.557Z,99275.81
2023-03-23T21:42:13.886Z,99275.81
2023-03-23T21:44:43.457Z,99276.63
2023-03-23T21:47:12.706Z,99290.84
2023-03-23T21:49:41.336Z,99286.59
2023-03-23T21:52:09.387Z,99290.84
2023-03-23T21:54:38.622Z,99288.34
2023-03-23T21:57:06.927Z,99295.91
2023-03-23T21:59:34.981Z,99297.59
2023-03-23T22:02:03.092Z,99296.78
2023-03-23T22:04:31.310Z,99291.75
2023-03-23T22:06:59.640Z,99288.38
2023-03-23T22:09:28.087Z,99292.59
2023-03-23T22:11:57.914Z,99289.22
2023-03-23T22:14:28.419Z,99284.19
2023-03-23T22:16:57.156Z,99293.44
2023-03-23T22:19:25.465Z,99300.16
2023-03-23T22:21:53.738Z,99301.78
2023-03-23T22:24:21.839Z,99303.44
2023-03-23T22:26:50.116Z,99310.16
2023-03-23T22:29:19.546Z,99305.94
2023-03-23T22:31:47.736Z,99303.41
2023-03-23T22:34:16.645Z,99297.53
2023-03-23T22:36:44.779Z,99295.84
2023-03-23T22:39:12.879Z,99294.16
2023-03-23T22:41:43.011Z,99289.09
2023-03-23T22:44:14.011Z,99293.25
2023-03-23T22:46:43.585Z,99291.47
2023-03-23T22:49:11.802Z,99280.59
2023-03-23T22:51:40.199Z,99286.47
2023-03-23T22:54:08.835Z,99277.19
2023-03-23T22:56:37.961Z,99274.59
2023-03-23T22:59:07.552Z,99272.88
2023-03-23T23:01:37.153Z,99265.31
2023-03-23T23:04:07.123Z,99268.72
2023-03-23T23:06:35.587Z,99264.63
2023-03-23T23:09:04.329Z,99262.97
2023-03-23T23:11:32.525Z,99254.59
2023-03-23T23:14:00.868Z,99263.81
2023-03-23T23:16:29.043Z,99263.81
2023-03-23T23:18:57.301Z,99268.00
2023-03-23T23:21:28.780Z,99267.16
2023-03-23T23:23:56.960Z,99265.47
2023-03-23T23:26:25.318Z,99269.66
2023-03-23T23:28:54.023Z,99263.69
2023-03-23T23:31:26.202Z,99258.53
2023-03-23T23:33:56.537Z,99258.41
2023-03-23T23:36:30.020Z,99249.91
2023-03-23T23:38:59.078Z,99244.91
2023-03-23T23:41:27.912Z,99239.81
2023-03-23T23:43:56.038Z,99245.66
2023-03-23T23:46:24.003Z,99253.16
2023-03-23T23:48:52.305Z,99244.75
2023-03-23T23:51:20.879Z,99236.41
2023-03-23T23:53:53.348Z,99236.47
2023-03-23T23:56:22.388Z,99239.88
2023-03-23T23:58:50.580Z,99241.66
